Time;durP1;ratioP1;P1;durP2;ratioP2;P2;SDS_P1;SDS_P2;PMS_P1;PMS_P2;Temp;Humidity;BMP_temperature;BMP_pressure;BME280_temperature;BME280_humidity;BME280_pressure;Samples;Min_cycle;Max_cycle;Signal;HPM_P1;HPM_P2
2023/10/24 00:01:58;;;;;;;3.95;2.38;;;15.20;99.90;;;;;;4992545;28;20026;-36
2023/10/24 00:04:25;;;;;;;2.88;2.13;;;15.20;99.90;;;;;;4991172;28;20038;-39
2023/10/24 00:06:50;;;;;;;3.45;2.30;;;15.20;99.90;;;;;;4992363;28;20030;-41
2023/10/24 00:09:16;;;;;;;3.40;2.30;;;15.20;99.90;;;;;;4992494;28;20034;-40
2023/10/24 00:11:41;;;;;;;3.58;2.28;;;15.20;99.90;;;;;;4992454;28;20462;-40
2023/10/24 00:14:07;;;;;;;4.97;2.25;;;15.20;99.90;;;;;;4992269;28;20030;-40
2023/10/24 00:16:32;;;;;;;4.10;2.50;;;15.20;99.90;;;;;;4992148;28;20077;-40
2023/10/24 00:18:58;;;;;;;2.80;2.13;;;15.20;99.90;;;;;;4992070;28;20463;-40
2023/10/24 00:21:24;;;;;;;4.10;2.55;;;15.20;99.90;;;;;;4992268;28;20088;-42
2023/10/24 00:23:49;;;;;;;3.75;2.65;;;15.20;99.90;;;;;;4992178;28;20065;-40
2023/10/24 00:26:15;;;;;;;3.20;2.28;;;15.20;99.90;;;;;;4992047;28;20038;-40
2023/10/24 00:28:41;;;;;;;4.32;2.00;;;15.20;99.90;;;;;;4992303;28;20038;-40
2023/10/24 00:31:07;;;;;;;3.50;2.28;;;15.20;99.90;;;;;;4992161;28;20031;-38
2023/10/24 00:33:33;;;;;;;4.10;2.40;;;15.20;99.90;;;;;;4992023;28;20069;-39
2023/10/24 00:35:59;;;;;;;3.92;2.72;;;15.20;99.90;;;;;;4991976;28;20542;-38
2023/10/24 00:38:25;;;;;;;3.63;2.00;;;15.20;99.90;;;;;;4991959;28;20097;-38
2023/10/24 00:40:50;;;;;;;4.07;2.20;;;15.20;99.90;;;;;;4992634;28;20496;-38
2023/10/24 00:43:16;;;;;;;3.85;2.30;;;15.20;99.90;;;;;;4991870;28;20121;-39
2023/10/24 00:45:42;;;;;;;4.28;2.17;;;15.20;99.90;;;;;;4991920;28;20072;-39
2023/10/24 00:48:08;;;;;;;2.33;1.95;;;15.20;99.90;;;;;;4991718;28;20033;-38
2023/10/24 00:50:34;;;;;;;2.53;1.85;;;15.20;99.90;;;;;;4991897;28;20026;-39
2023/10/24 00:53:01;;;;;;;3.00;2.28;;;15.20;99.90;;;;;;4991896;28;20569;-38
2023/10/24 00:55:29;;;;;;;5.05;2.55;;;15.20;99.90;;;;;;4991787;28;20026;-38
2023/10/24 00:57:56;;;;;;;3.17;2.30;;;15.20;99.90;;;;;;4991706;28;20033;-39
2023/10/24 01:00:24;;;;;;;3.60;2.13;;;15.20;99.90;;;;;;4992339;28;20022;-39
2023/10/24 01:02:50;;;;;;;3.50;2.20;;;15.20;99.90;;;;;;4995741;28;20022;-38
2023/10/24 01:05:16;;;;;;;3.25;2.05;;;15.20;99.90;;;;;;4994459;28;20040;-38
2023/10/24 01:07:44;;;;;;;3.17;2.28;;;15.20;99.90;;;;;;4994694;28;20535;-38
2023/10/24 01:10:11;;;;;;;2.63;2.00;;;15.20;99.90;;;;;;4995837;28;20019;-38
2023/10/24 01:12:38;;;;;;;4.20;2.08;;;15.20;99.90;;;;;;4995735;28;20027;-38
2023/10/24 01:15:05;;;;;;;3.78;2.10;;;15.20;99.90;;;;;;4995480;28;20030;-39
2023/10/24 01:17:31;;;;;;;4.30;1.80;;;15.20;99.90;;;;;;4995528;28;20023;-38
2023/10/24 01:19:57;;;;;;;4.13;2.20;;;15.20;99.90;;;;;;4995550;28;20459;-39
2023/10/24 01:22:22;;;;;;;3.38;2.15;;;15.20;99.90;;;;;;4995481;28;20130;-39
2023/10/24 01:24:49;;;;;;;4.93;2.15;;;15.20;99.90;;;;;;4995408;28;20042;-38
2023/10/24 01:27:15;;;;;;;3.30;2.03;;;15.20;99.90;;;;;;4995457;28;20458;-38
2023/10/24 01:29:40;;;;;;;2.78;1.90;;;15.20;99.90;;;;;;4995356;28;20106;-38
2023/10/24 01:32:06;;;;;;;2.97;1.90;;;15.20;99.90;;;;;;4995163;28;20030;-38
2023/10/24 01:34:32;;;;;;;2.70;1.70;;;15.20;99.90;;;;;;4995322;28;20026;-38
2023/10/24 01:36:57;;;;;;;4.93;2.00;;;15.20;99.90;;;;;;4995137;28;20054;-39
2023/10/24 01:39:23;;;;;;;2.83;1.80;;;15.20;99.90;;;;;;4995215;28;20117;-38
2023/10/24 01:41:49;;;;;;;2.90;1.90;;;15.20;99.90;;;;;;4995240;28;20034;-38
2023/10/24 01:44:14;;;;;;;3.20;1.90;;;15.20;99.90;;;;;;4995361;28;20034;-41
2023/10/24 01:46:40;;;;;;;3.80;2.22;;;15.20;99.90;;;;;;4995176;28;20031;-40
2023/10/24 01:49:21;;;;;;;4.85;1.83;;;15.20;99.90;;;;;;4951895;28;20146;-40
2023/10/24 01:51:46;;;;;;;2.90;2.00;;;15.20;99.90;;;;;;4977619;28;20527;-39
2023/10/24 01:54:12;;;;;;;3.42;1.80;;;15.20;99.90;;;;;;4993617;28;20526;-42
2023/10/24 01:56:38;;;;;;;2.92;2.00;;;15.20;99.90;;;;;;4994636;28;20023;-41
2023/10/24 01:59:04;;;;;;;3.45;2.00;;;15.20;99.90;;;;;;4994837;28;20038;-41
2023/10/24 02:01:29;;;;;;;2.97;1.92;;;15.20;99.90;;;;;;4993566;28;20022;-41
2023/10/24 02:03:55;;;;;;;4.22;1.73;;;15.20;99.90;;;;;;4994720;28;20026;-41
2023/10/24 02:06:21;;;;;;;3.20;1.98;;;15.20;99.90;;;;;;4994613;28;20022;-40
2023/10/24 02:08:47;;;;;;;3.45;2.03;;;15.20;99.90;;;;;;4994741;28;20037;-39
2023/10/24 02:11:12;;;;;;;4.60;1.88;;;15.20;99.90;;;;;;4994436;28;20038;-40
2023/10/24 02:13:38;;;;;;;3.78;2.10;;;15.20;99.90;;;;;;4993226;28;20117;-41
2023/10/24 02:16:03;;;;;;;2.88;1.83;;;15.20;99.90;;;;;;4994390;28;20038;-41
2023/10/24 02:18:29;;;;;;;3.63;2.05;;;15.20;99.90;;;;;;4994597;28;20081;-40
2023/10/24 02:20:55;;;;;;;2.78;1.70;;;15.20;99.90;;;;;;4994555;28;20388;-41
2023/10/24 02:23:20;;;;;;;2.67;1.80;;;15.20;99.90;;;;;;4994489;28;20116;-41
2023/10/24 02:25:46;;;;;;;2.50;1.65;;;15.20;99.90;;;;;;4994266;28;20022;-40
2023/10/24 02:28:11;;;;;;;2.85;1.73;;;15.20;99.90;;;;;;4994224;28;20061;-40
2023/10/24 02:30:37;;;;;;;3.13;1.92;;;15.20;99.90;;;;;;4994264;28;20061;-41
2023/10/24 02:33:03;;;;;;;2.75;1.60;;;15.20;99.90;;;;;;4994252;28;20037;-40
2023/10/24 02:35:29;;;;;;;4.25;1.95;;;15.20;99.90;;;;;;4994111;28;20081;-41
2023/10/24 02:37:54;;;;;;;2.90;1.85;;;15.20;99.90;;;;;;4994011;28;20032;-41
2023/10/24 02:40:20;;;;;;;2.50;1.90;;;15.10;99.90;;;;;;4992805;28;20072;-40
2023/10/24 02:42:45;;;;;;;3.33;1.95;;;15.20;99.90;;;;;;4993875;28;20041;-43
2023/10/24 02:45:11;;;;;;;2.85;1.70;;;15.10;99.90;;;;;;4993988;28;20500;-40
2023/10/24 02:47:37;;;;;;;3.10;1.88;;;15.20;99.90;;;;;;4993951;28;20587;-41
2023/10/24 02:50:03;;;;;;;4.10;1.80;;;15.20;99.90;;;;;;4993992;28;20030;-40
2023/10/24 02:52:29;;;;;;;2.72;1.60;;;15.20;99.90;;;;;;4993855;28;20038;-42
2023/10/24 02:54:55;;;;;;;2.97;1.80;;;15.20;99.90;;;;;;4993720;28;20080;-41
2023/10/24 02:57:22;;;;;;;2.78;1.88;;;15.10;99.90;;;;;;4993984;28;20105;-41
2023/10/24 02:59:48;;;;;;;6.50;1.63;;;15.20;99.90;;;;;;4993726;28;20023;-41
2023/10/24 03:02:14;;;;;;;2.47;1.52;;;15.20;99.90;;;;;;4993633;28;20045;-39
2023/10/24 03:04:40;;;;;;;2.20;1.55;;;15.20;99.90;;;;;;4993648;28;20392;-38
2023/10/24 03:07:05;;;;;;;3.20;1.85;;;15.20;99.90;;;;;;4993741;28;20098;-39
2023/10/24 03:09:31;;;;;;;2.35;1.55;;;15.10;99.90;;;;;;4993575;28;20089;-39
2023/10/24 03:11:56;;;;;;;2.47;1.65;;;15.20;99.90;;;;;;4993478;28;20033;-39
2023/10/24 03:14:22;;;;;;;2.75;1.80;;;15.10;99.90;;;;;;4993568;28;20026;-39
2023/10/24 03:16:48;;;;;;;3.28;1.70;;;15.20;99.90;;;;;;4993285;28;20479;-39
2023/10/24 03:19:14;;;;;;;3.70;1.85;;;15.10;99.90;;;;;;4993329;28;20395;-39
2023/10/24 03:21:40;;;;;;;2.67;1.67;;;15.10;99.90;;;;;;4992372;28;20018;-39
2023/10/24 03:24:06;;;;;;;2.85;1.90;;;15.10;99.90;;;;;;4992802;28;20034;-39
2023/10/24 03:26:31;;;;;;;2.95;1.70;;;15.10;99.90;;;;;;4993150;28;20105;-39
2023/10/24 03:28:57;;;;;;;3.25;1.50;;;15.10;99.90;;;;;;4993257;28;20480;-39
2023/10/24 03:31:22;;;;;;;2.42;1.60;;;15.10;99.90;;;;;;4993155;28;20026;-39
2023/10/24 03:33:48;;;;;;;2.55;1.70;;;15.10;99.90;;;;;;4993063;28;20026;-38
2023/10/24 03:36:13;;;;;;;3.63;1.80;;;15.10;99.90;;;;;;4992814;28;20034;-38
2023/10/24 03:38:40;;;;;;;2.38;1.80;;;15.20;99.90;;;;;;4992919;28;20030;-39
2023/10/24 03:41:07;;;;;;;4.60;1.95;;;15.10;99.90;;;;;;4992878;28;20392;-39
2023/10/24 03:43:34;;;;;;;2.95;1.70;;;15.10;99.90;;;;;;4992815;28;20039;-39
2023/10/24 03:46:07;;;;;;;2.63;1.65;;;15.10;99.90;;;;;;4992781;28;20018;-39
2023/10/24 03:48:33;;;;;;;2.65;1.67;;;15.10;99.90;;;;;;4993017;28;20069;-39
2023/10/24 03:51:01;;;;;;;4.65;1.75;;;15.10;99.90;;;;;;4992787;28;20427;-38
2023/10/24 03:53:28;;;;;;;2.72;1.65;;;15.10;99.90;;;;;;4992657;28;20129;-38
2023/10/24 03:55:59;;;;;;;2.53;1.58;;;15.10;99.90;;;;;;4992675;28;20030;-40
2023/10/24 03:58:25;;;;;;;2.15;1.40;;;15.10;99.90;;;;;;4992691;28;20026;-41
2023/10/24 04:00:51;;;;;;;2.38;1.80;;;15.10;99.90;;;;;;4992679;28;20034;-43
2023/10/24 04:03:17;;;;;;;2.65;1.63;;;15.10;99.90;;;;;;4992589;28;20072;-41
2023/10/24 04:05:42;;;;;;;3.03;1.50;;;15.10;99.90;;;;;;4992480;28;20141;-41
2023/10/24 04:08:09;;;;;;;2.35;1.63;;;15.10;99.90;;;;;;4992357;28;20030;-40
2023/10/24 04:10:34;;;;;;;2.97;1.58;;;15.10;99.90;;;;;;4992496;28;20026;-41
2023/10/24 04:13:00;;;;;;;2.58;1.70;;;15.10;99.90;;;;;;4992384;28;20376;-39
2023/10/24 04:15:27;;;;;;;2.33;1.52;;;15.10;99.90;;;;;;4992356;28;20037;-40
2023/10/24 04:17:53;;;;;;;2.15;1.55;;;15.10;99.90;;;;;;4992311;28;20018;-41
2023/10/24 04:20:19;;;;;;;3.17;1.45;;;15.10;99.90;;;;;;4992370;28;20488;-40
2023/10/24 04:22:46;;;;;;;3.42;1.92;;;15.10;99.90;;;;;;4992111;28;20117;-41
2023/10/24 04:25:12;;;;;;;3.22;1.50;;;15.10;99.90;;;;;;4992193;28;20032;-40
2023/10/24 04:27:38;;;;;;;2.53;1.63;;;15.10;99.90;;;;;;4992171;28;20026;-41
2023/10/24 04:30:07;;;;;;;4.10;1.67;;;15.10;99.90;;;;;;4992316;28;20028;-40
2023/10/24 04:32:33;;;;;;;3.08;1.70;;;15.10;99.90;;;;;;4992255;28;20037;-41
2023/10/24 04:35:00;;;;;;;2.60;1.88;;;15.10;99.90;;;;;;4991265;28;20447;-41
2023/10/24 04:37:25;;;;;;;3.20;1.88;;;15.10;99.90;;;;;;4992262;28;20072;-41
2023/10/24 04:39:51;;;;;;;3.35;1.40;;;15.10;99.90;;;;;;4992144;28;20026;-41
2023/10/24 04:42:17;;;;;;;2.78;1.50;;;15.10;99.90;;;;;;4991834;28;20485;-39
2023/10/24 04:44:42;;;;;;;2.08;1.50;;;15.10;99.90;;;;;;4991934;28;20114;-41
2023/10/24 04:47:08;;;;;;;2.10;1.38;;;15.10;99.90;;;;;;4991880;28;20076;-40
2023/10/24 04:49:36;;;;;;;3.35;1.58;;;15.10;99.90;;;;;;4991829;28;20053;-41
2023/10/24 04:52:02;;;;;;;2.55;1.42;;;15.10;99.90;;;;;;4991993;28;20026;-41
2023/10/24 04:54:28;;;;;;;1.90;1.17;;;15.10;99.90;;;;;;4992038;28;20027;-41
2023/10/24 04:56:55;;;;;;;2.38;1.50;;;15.10;99.90;;;;;;4991679;28;20080;-40
2023/10/24 04:59:20;;;;;;;1.80;1.40;;;15.10;99.90;;;;;;4990521;28;20101;-41
2023/10/24 05:01:46;;;;;;;2.78;1.30;;;15.10;99.90;;;;;;4991866;28;20066;-40
2023/10/24 05:04:12;;;;;;;2.72;1.40;;;15.10;99.90;;;;;;4991707;28;20026;-40
2023/10/24 05:06:37;;;;;;;3.35;1.77;;;15.10;99.90;;;;;;4991644;28;20029;-37
2023/10/24 05:09:03;;;;;;;1.77;1.40;;;15.10;99.90;;;;;;4991904;28;20018;-36
2023/10/24 05:11:29;;;;;;;3.00;1.80;;;15.10;99.90;;;;;;4991825;28;20480;-36
2023/10/24 05:13:54;;;;;;;3.47;1.40;;;15.10;99.90;;;;;;4991707;28;20114;-36
2023/10/24 05:16:20;;;;;;;1.65;1.33;;;15.10;99.90;;;;;;4991558;28;20026;-36
2023/10/24 05:18:46;;;;;;;2.90;1.85;;;15.10;99.90;;;;;;4991517;28;20073;-38
2023/10/24 05:21:11;;;;;;;2.55;1.73;;;15.10;99.90;;;;;;4991990;28;20029;-36
2023/10/24 05:23:37;;;;;;;2.25;1.30;;;15.10;99.90;;;;;;4992905;28;20439;-36
2023/10/24 05:26:02;;;;;;;2.60;1.50;;;15.10;99.90;;;;;;4991705;28;20554;-38
2023/10/24 05:28:30;;;;;;;4.15;1.83;;;15.10;99.90;;;;;;4991626;28;20050;-39
2023/10/24 05:30:56;;;;;;;2.63;1.42;;;15.10;99.90;;;;;;4991606;28;20484;-36
2023/10/24 05:33:22;;;;;;;4.35;1.77;;;15.10;99.90;;;;;;4991465;28;20042;-37
2023/10/24 05:35:48;;;;;;;2.72;1.50;;;15.10;99.90;;;;;;4991411;28;20105;-36
2023/10/24 05:38:13;;;;;;;2.50;1.40;;;15.10;99.90;;;;;;4991417;28;20436;-36
2023/10/24 05:40:40;;;;;;;3.03;1.67;;;15.10;99.90;;;;;;4991814;28;20029;-37
2023/10/24 05:43:06;;;;;;;2.75;1.83;;;15.10;99.90;;;;;;4991241;28;20061;-36
2023/10/24 05:45:32;;;;;;;2.20;1.38;;;15.10;99.90;;;;;;4991459;28;20106;-41
2023/10/24 05:47:58;;;;;;;4.30;1.70;;;15.10;99.90;;;;;;4994188;28;20046;-40
2023/10/24 05:50:24;;;;;;;2.72;1.55;;;15.10;99.90;;;;;;4995373;28;20065;-41
2023/10/24 05:52:50;;;;;;;3.50;1.50;;;15.10;99.90;;;;;;4994971;28;20030;-40
2023/10/24 05:55:16;;;;;;;1.80;1.40;;;15.10;99.90;;;;;;4994922;28;20069;-41
2023/10/24 05:57:42;;;;;;;4.78;1.65;;;15.10;99.90;;;;;;4994826;28;20030;-38
2023/10/24 06:00:09;;;;;;;2.63;1.38;;;15.10;99.90;;;;;;4994852;28;20069;-40
2023/10/24 06:02:35;;;;;;;4.28;1.55;;;15.10;99.90;;;;;;4994652;28;20069;-38
2023/10/24 06:05:00;;;;;;;2.03;1.58;;;15.10;99.90;;;;;;4994721;28;20026;-40
2023/10/24 06:07:26;;;;;;;1.80;1.40;;;15.10;99.90;;;;;;4994743;28;20030;-40
2023/10/24 06:09:52;;;;;;;1.90;1.58;;;15.10;99.90;;;;;;4994751;28;20029;-38
2023/10/24 06:12:18;;;;;;;3.80;1.40;;;15.00;99.90;;;;;;4994588;28;20105;-38
2023/10/24 06:14:43;;;;;;;3.08;1.60;;;15.10;99.90;;;;;;4994631;28;20105;-39
2023/10/24 06:17:09;;;;;;;1.80;1.50;;;15.10;99.90;;;;;;4994437;28;20033;-39
2023/10/24 06:19:39;;;;;;;2.75;1.77;;;15.10;99.90;;;;;;4994571;28;20739;-37
2023/10/24 06:22:06;;;;;;;2.75;1.65;;;15.10;99.90;;;;;;4994651;28;20030;-38
2023/10/24 06:24:31;;;;;;;1.98;1.58;;;15.00;99.90;;;;;;4994413;28;20114;-40
2023/10/24 06:26:57;;;;;;;2.15;1.33;;;15.00;99.90;;;;;;4994274;28;20102;-38
2023/10/24 06:29:22;;;;;;;2.95;1.52;;;15.00;99.90;;;;;;4994459;28;20022;-37
2023/10/24 06:31:48;;;;;;;3.13;1.60;;;15.00;99.90;;;;;;4994230;28;20037;-37
2023/10/24 06:34:13;;;;;;;1.85;1.40;;;15.00;99.90;;;;;;4994196;28;20109;-41
2023/10/24 06:36:39;;;;;;;2.25;1.55;;;15.00;99.90;;;;;;4994099;28;20057;-39
2023/10/24 06:39:05;;;;;;;5.45;1.88;;;15.00;99.90;;;;;;4994152;28;20026;-44
2023/10/24 06:41:31;;;;;;;2.97;1.50;;;15.00;99.90;;;;;;4994083;28;20038;-41
2023/10/24 06:43:57;;;;;;;3.63;1.80;;;15.00;99.90;;;;;;4993967;28;20038;-42
2023/10/24 06:46:24;;;;;;;3.60;1.70;;;15.00;99.90;;;;;;4993869;28;20415;-44
2023/10/24 06:48:50;;;;;;;3.97;2.05;;;15.10;99.90;;;;;;4994476;28;20556;-36
2023/10/24 06:51:16;;;;;;;2.60;1.70;;;15.10;99.90;;;;;;4994016;28;20032;-39
2023/10/24 06:53:42;;;;;;;2.03;1.55;;;15.00;99.90;;;;;;4993903;28;20137;-36
2023/10/24 06:56:08;;;;;;;2.35;1.60;;;15.10;99.90;;;;;;4993713;28;20037;-36
2023/10/24 06:58:33;;;;;;;2.08;1.52;;;15.10;99.90;;;;;;4993037;28;20030;-37
2023/10/24 07:00:59;;;;;;;2.58;1.40;;;15.00;99.90;;;;;;4993687;28;20484;-36
2023/10/24 07:03:25;;;;;;;1.95;1.50;;;15.00;99.90;;;;;;4993684;28;20025;-37
2023/10/24 07:05:54;;;;;;;3.75;1.50;;;15.00;99.90;;;;;;4993610;28;20384;-39
2023/10/24 07:08:20;;;;;;;3.22;1.70;;;15.10;99.90;;;;;;4993622;28;20123;-36
2023/10/24 07:10:47;;;;;;;2.35;1.60;;;15.10;99.90;;;;;;4993577;28;20030;-36
2023/10/24 07:13:12;;;;;;;1.83;1.40;;;15.10;99.90;;;;;;4994055;28;20137;-36
2023/10/24 07:15:39;;;;;;;3.92;1.63;;;15.00;99.90;;;;;;4993329;28;20137;-36
2023/10/24 07:18:05;;;;;;;2.60;1.77;;;15.10;99.90;;;;;;4993373;28;20034;-38
2023/10/24 07:20:35;;;;;;;3.05;1.77;;;15.10;99.90;;;;;;4993433;28;20480;-39
2023/10/24 07:23:01;;;;;;;2.58;1.73;;;15.10;99.90;;;;;;4993356;28;20022;-38
2023/10/24 07:25:27;;;;;;;3.28;2.00;;;15.10;99.90;;;;;;4993168;28;20053;-39
2023/10/24 07:27:53;;;;;;;2.63;1.90;;;15.10;99.90;;;;;;4993211;28;20472;-41
2023/10/24 07:30:19;;;;;;;2.13;1.55;;;15.00;99.90;;;;;;4993218;28;20031;-41
2023/10/24 07:32:45;;;;;;;3.67;2.00;;;15.10;99.90;;;;;;4993465;28;20080;-41
2023/10/24 07:35:10;;;;;;;3.90;2.20;;;15.00;99.90;;;;;;4975610;28;20026;-41
2023/10/24 07:37:36;;;;;;;3.22;1.98;;;15.10;99.90;;;;;;4993059;28;20026;-36
2023/10/24 07:40:03;;;;;;;2.60;1.85;;;15.10;99.90;;;;;;4992966;28;20048;-39
2023/10/24 07:42:28;;;;;;;3.65;1.88;;;15.00;99.90;;;;;;4992848;28;20026;-39
2023/10/24 07:44:54;;;;;;;2.53;1.75;;;15.10;99.90;;;;;;4993340;28;20030;-39
2023/10/24 07:47:20;;;;;;;5.07;2.13;;;15.10;99.90;;;;;;4993485;28;20057;-39
2023/10/24 07:49:45;;;;;;;3.50;1.90;;;15.10;99.90;;;;;;4993240;28;20029;-39
2023/10/24 07:52:11;;;;;;;3.60;1.90;;;15.10;99.90;;;;;;4993144;28;20101;-39
2023/10/24 07:54:38;;;;;;;2.85;1.85;;;15.10;99.90;;;;;;4992906;28;20027;-38
2023/10/24 07:57:05;;;;;;;3.30;1.80;;;15.10;99.90;;;;;;4991766;28;20388;-40
2023/10/24 07:59:31;;;;;;;2.55;1.75;;;15.10;99.90;;;;;;4992636;28;20026;-38
2023/10/24 08:01:56;;;;;;;4.68;2.00;;;15.10;99.90;;;;;;4992640;28;20022;-38
2023/10/24 08:04:22;;;;;;;5.18;1.88;;;15.10;99.90;;;;;;4992515;28;20073;-38
2023/10/24 08:06:48;;;;;;;3.67;2.08;;;15.10;99.90;;;;;;4992355;28;20106;-39
2023/10/24 08:09:14;;;;;;;3.00;1.88;;;15.10;99.90;;;;;;4991200;28;20034;-37
2023/10/24 08:11:40;;;;;;;3.17;2.22;;;15.10;99.90;;;;;;4992506;28;20027;-39
2023/10/24 08:14:05;;;;;;;3.25;1.75;;;15.10;99.90;;;;;;4992300;28;20027;-38
2023/10/24 08:16:31;;;;;;;3.42;1.90;;;15.10;99.90;;;;;;4992281;28;20072;-38
2023/10/24 08:18:57;;;;;;;4.13;1.98;;;15.10;99.90;;;;;;4992455;28;20034;-40
2023/10/24 08:21:23;;;;;;;4.65;2.25;;;15.10;99.90;;;;;;4992322;28;20026;-40
2023/10/24 08:23:49;;;;;;;3.72;2.08;;;15.10;99.90;;;;;;4992190;28;20027;-40
2023/10/24 08:26:15;;;;;;;3.45;1.83;;;15.10;99.90;;;;;;4991942;28;20488;-39
2023/10/24 08:28:41;;;;;;;3.03;2.00;;;15.10;99.90;;;;;;4992369;28;20432;-41
2023/10/24 08:31:07;;;;;;;3.13;2.00;;;15.10;99.90;;;;;;4992214;28;20026;-40
2023/10/24 08:33:33;;;;;;;2.30;1.90;;;15.00;99.90;;;;;;4992152;28;20041;-41
2023/10/24 08:35:58;;;;;;;4.18;2.40;;;15.10;99.90;;;;;;4992071;28;20030;-41
2023/10/24 08:38:24;;;;;;;3.35;2.08;;;15.10;99.90;;;;;;4991975;28;20527;-39
2023/10/24 08:40:50;;;;;;;2.83;2.03;;;15.10;99.90;;;;;;4992518;28;20029;-39
2023/10/24 08:43:18;;;;;;;3.55;2.28;;;15.10;99.90;;;;;;4991779;28;20041;-36
2023/10/24 08:45:44;;;;;;;4.50;2.40;;;15.10;99.90;;;;;;4991927;28;20088;-38
2023/10/24 08:48:10;;;;;;;4.88;2.30;;;15.10;99.90;;;;;;4990897;28;20109;-39
2023/10/24 08:50:36;;;;;;;3.70;2.38;;;15.10;99.90;;;;;;4991959;28;20081;-39
2023/10/24 08:53:02;;;;;;;3.60;2.33;;;15.10;99.90;;;;;;4991922;28;20050;-39
2023/10/24 08:55:29;;;;;;;4.63;2.45;;;15.10;99.90;;;;;;4991774;28;20050;-39
2023/10/24 08:57:57;;;;;;;6.78;2.03;;;15.10;99.90;;;;;;4991904;28;20034;-36
2023/10/24 09:00:23;;;;;;;3.42;2.00;;;15.10;99.90;;;;;;4992100;28;20405;-36
2023/10/24 09:02:48;;;;;;;3.83;2.28;;;15.10;99.90;;;;;;4991863;28;20027;-36
2023/10/24 09:05:15;;;;;;;5.03;2.80;;;15.10;99.90;;;;;;4991728;28;20492;-36
2023/10/24 09:07:41;;;;;;;3.97;2.30;;;15.10;99.90;;;;;;4991701;28;20027;-38
2023/10/24 09:10:07;;;;;;;3.97;2.10;;;15.10;99.90;;;;;;4991787;28;20365;-37
2023/10/24 09:12:34;;;;;;;3.72;2.50;;;15.10;99.90;;;;;;4991724;28;20031;-40
2023/10/24 09:15:01;;;;;;;4.55;2.40;;;15.10;99.90;;;;;;4991657;28;20031;-39
2023/10/24 09:17:26;;;;;;;3.67;2.13;;;15.10;99.90;;;;;;4991689;28;20537;-38
2023/10/24 09:19:58;;;;;;;4.20;2.20;;;15.10;99.90;;;;;;4991649;28;20030;-39
2023/10/24 09:22:27;;;;;;;3.75;2.58;;;15.10;99.90;;;;;;4993819;28;20030;-36
2023/10/24 09:24:55;;;;;;;3.28;2.30;;;15.10;99.90;;;;;;4995417;28;20507;-36
2023/10/24 09:27:27;;;;;;;3.00;2.13;;;15.10;99.90;;;;;;4995454;28;20026;-37
2023/10/24 09:29:53;;;;;;;3.70;2.30;;;15.10;99.90;;;;;;4995557;28;20031;-36
2023/10/24 09:32:22;;;;;;;3.83;2.30;;;15.10;99.90;;;;;;4995365;28;20032;-36
2023/10/24 09:34:48;;;;;;;4.05;2.28;;;15.10;99.90;;;;;;4995309;28;20033;-37
2023/10/24 09:37:15;;;;;;;3.92;2.22;;;15.10;99.90;;;;;;4995224;28;20634;-36
2023/10/24 09:39:58;;;;;;;3.70;2.28;;;15.10;99.90;;;;;;4995277;28;20113;-36
2023/10/24 09:42:26;;;;;;;3.35;2.20;;;15.00;99.90;;;;;;4995084;28;20571;-36
2023/10/24 09:44:57;;;;;;;3.60;2.50;;;15.10;99.90;;;;;;4995211;28;20411;-36
2023/10/24 09:47:23;;;;;;;3.28;2.30;;;15.10;99.90;;;;;;4995149;28;20033;-37
2023/10/24 09:49:53;;;;;;;3.90;2.42;;;15.10;99.90;;;;;;4995048;28;20118;-36
2023/10/24 09:52:21;;;;;;;3.08;2.22;;;15.10;99.90;;;;;;4994985;28;20534;-37
2023/10/24 09:54:50;;;;;;;3.65;2.17;;;15.10;99.90;;;;;;4995114;28;20037;-37
2023/10/24 09:57:21;;;;;;;2.63;1.98;;;15.10;99.90;;;;;;4994969;28;20034;-36
2023/10/24 09:59:51;;;;;;;3.38;2.35;;;15.10;99.90;;;;;;4994951;28;20023;-36
2023/10/24 10:02:21;;;;;;;5.05;2.40;;;15.10;99.90;;;;;;4994747;28;20448;-39
2023/10/24 10:04:53;;;;;;;4.97;2.28;;;15.10;99.90;;;;;;4994968;28;20447;-38
2023/10/24 10:07:22;;;;;;;4.22;2.38;;;15.10;99.90;;;;;;4994748;28;20105;-39
2023/10/24 10:09:54;;;;;;;3.97;2.53;;;15.10;99.90;;;;;;4994798;28;20037;-38
2023/10/24 10:12:19;;;;;;;4.32;2.42;;;15.10;99.90;;;;;;4994708;28;20452;-39
2023/10/24 10:15:22;;;;;;;2.50;2.00;;;15.10;99.90;;;;;;4994531;28;20058;-40
2023/10/24 10:18:09;;;;;;;3.65;1.90;;;15.00;99.90;;;;;;4994566;28;20036;-38
2023/10/24 10:20:56;;;;;;;4.10;2.33;;;15.10;99.90;;;;;;4994572;28;20030;-38
2023/10/24 10:23:25;;;;;;;2.97;2.20;;;15.10;99.90;;;;;;4994602;28;20109;-38
2023/10/24 10:26:03;;;;;;;2.50;2.10;;;15.00;99.90;;;;;;4994366;28;20419;-38
2023/10/24 10:29:00;;;;;;;3.13;2.03;;;15.10;99.90;;;;;;4994675;28;20101;-38
2023/10/24 10:31:25;;;;;;;3.05;2.00;;;15.10;99.90;;;;;;4994261;28;20400;-39
2023/10/24 10:33:54;;;;;;;2.63;1.98;;;15.10;99.90;;;;;;4993098;28;20484;-38
2023/10/24 10:36:19;;;;;;;3.88;2.13;;;15.10;99.90;;;;;;4994195;28;20451;-39
2023/10/24 10:38:47;;;;;;;2.92;1.83;;;15.10;99.90;;;;;;4994225;28;20290;-38
2023/10/24 10:41:21;;;;;;;3.30;2.00;;;15.10;99.90;;;;;;4994366;28;20069;-37
2023/10/24 10:43:55;;;;;;;3.33;2.10;;;15.10;99.90;;;;;;4994104;28;20101;-37
2023/10/24 10:46:27;;;;;;;2.08;1.70;;;15.10;99.90;;;;;;4994335;28;20033;-40
2023/10/24 10:48:59;;;;;;;3.65;2.00;;;15.10;99.90;;;;;;4994248;28;20488;-36
2023/10/24 10:51:29;;;;;;;3.50;1.92;;;15.10;99.90;;;;;;4993050;28;20030;-37
2023/10/24 10:54:30;;;;;;;5.35;2.13;;;15.10;99.90;;;;;;4994123;28;20026;-39
2023/10/24 10:57:02;;;;;;;2.35;1.80;;;15.10;99.90;;;;;;4994373;28;20030;-37
2023/10/24 10:59:57;;;;;;;2.58;1.85;;;15.10;99.90;;;;;;4994007;28;20062;-36
2023/10/24 11:02:30;;;;;;;2.92;1.90;;;15.10;99.90;;;;;;4994883;28;20149;-38
2023/10/24 11:04:55;;;;;;;2.72;1.90;;;15.10;99.90;;;;;;4994038;28;20022;-38
2023/10/24 11:07:53;;;;;;;2.60;1.67;;;15.10;99.90;;;;;;4993754;28;20036;-38
2023/10/24 11:10:19;;;;;;;2.63;1.98;;;15.10;99.90;;;;;;4993559;28;20411;-39
2023/10/24 11:12:48;;;;;;;2.88;1.98;;;15.10;99.90;;;;;;4993581;28;20117;-40
2023/10/24 11:15:14;;;;;;;3.13;1.90;;;15.10;99.90;;;;;;4993607;28;20061;-40
2023/10/24 11:17:40;;;;;;;3.05;1.92;;;15.10;99.90;;;;;;4993715;28;20443;-39
2023/10/24 11:20:10;;;;;;;2.58;1.80;;;15.10;99.90;;;;;;4993464;28;20105;-36
2023/10/24 11:22:38;;;;;;;2.78;1.88;;;15.10;99.90;;;;;;4993468;28;20400;-37
2023/10/24 11:25:10;;;;;;;3.22;1.75;;;15.10;99.90;;;;;;4993313;28;20022;-39
2023/10/24 11:27:37;;;;;;;2.67;1.92;;;15.10;99.90;;;;;;4993151;28;20575;-40
2023/10/24 11:30:05;;;;;;;2.97;1.65;;;15.10;99.90;;;;;;4992006;28;20089;-42
2023/10/24 11:32:30;;;;;;;2.83;1.70;;;15.10;99.90;;;;;;4975653;28;20065;-38
2023/10/24 11:34:56;;;;;;;2.97;1.90;;;15.10;99.90;;;;;;4993037;28;20415;-37
2023/10/24 11:37:22;;;;;;;3.38;1.90;;;15.10;99.90;;;;;;4993084;28;20554;-38
2023/10/24 11:39:48;;;;;;;2.80;1.83;;;15.10;99.90;;;;;;4993080;28;20113;-40
2023/10/24 11:42:14;;;;;;;4.55;1.67;;;15.10;99.90;;;;;;4992695;28;20507;-39
2023/10/24 11:44:40;;;;;;;2.90;1.75;;;15.10;99.90;;;;;;4975235;28;20030;-38
2023/10/24 11:47:07;;;;;;;2.47;1.75;;;15.10;99.90;;;;;;4992822;28;20029;-38
2023/10/24 11:49:36;;;;;;;3.80;1.90;;;15.10;99.90;;;;;;4992966;28;20081;-37
2023/10/24 11:52:02;;;;;;;2.38;1.90;;;15.10;99.90;;;;;;4992950;28;20038;-40
2023/10/24 11:54:28;;;;;;;2.08;1.55;;;15.10;99.90;;;;;;4992826;28;20037;-39
2023/10/24 11:56:54;;;;;;;1.88;1.50;;;15.10;99.90;;;;;;4992502;28;20403;-39
2023/10/24 11:59:20;;;;;;;1.77;1.55;;;15.10;99.90;;;;;;4992837;28;20042;-41
2023/10/24 12:01:46;;;;;;;3.60;1.83;;;15.10;99.90;;;;;;4992668;28;20027;-39
2023/10/24 12:04:13;;;;;;;2.67;1.60;;;15.10;99.90;;;;;;4992599;28;20030;-36
2023/10/24 12:06:39;;;;;;;2.50;1.65;;;15.10;99.90;;;;;;4992462;28;20027;-39
2023/10/24 12:09:06;;;;;;;2.40;1.50;;;15.10;99.90;;;;;;4992503;28;20034;-40
2023/10/24 12:11:35;;;;;;;3.30;1.73;;;15.10;99.90;;;;;;4992490;28;20030;-41
2023/10/24 12:14:01;;;;;;;2.42;1.80;;;15.10;99.90;;;;;;4992475;28;20034;-39
2023/10/24 12:16:31;;;;;;;2.40;1.40;;;15.10;99.90;;;;;;4992261;28;20053;-41
2023/10/24 12:18:57;;;;;;;2.88;1.88;;;15.10;99.90;;;;;;4992337;28;20165;-40
2023/10/24 12:21:23;;;;;;;3.22;1.75;;;15.10;99.90;;;;;;4992384;28;20101;-40
2023/10/24 12:23:49;;;;;;;2.80;1.50;;;15.10;99.90;;;;;;4992176;28;20485;-39
2023/10/24 12:26:15;;;;;;;3.88;1.92;;;15.10;99.90;;;;;;4992110;28;20093;-39
2023/10/24 12:28:43;;;;;;;3.38;1.80;;;15.10;99.90;;;;;;4992273;28;20121;-39
2023/10/24 12:31:10;;;;;;;2.85;1.60;;;15.10;99.90;;;;;;4992180;28;20481;-40
2023/10/24 12:33:36;;;;;;;2.47;1.55;;;15.10;99.90;;;;;;4992448;28;20117;-41
2023/10/24 12:36:04;;;;;;;3.90;1.83;;;15.10;99.90;;;;;;4992110;28;20034;-39
2023/10/24 12:38:29;;;;;;;2.30;1.80;;;15.10;99.90;;;;;;4990908;28;20439;-37
2023/10/24 12:40:55;;;;;;;3.47;1.70;;;15.10;99.90;;;;;;4992113;28;20027;-40
2023/10/24 12:43:21;;;;;;;2.80;1.60;;;15.10;99.90;;;;;;4992026;28;20118;-40
2023/10/24 12:45:47;;;;;;;2.17;1.60;;;15.10;99.90;;;;;;4991957;28;20022;-38
2023/10/24 12:48:13;;;;;;;3.03;1.70;;;15.10;99.90;;;;;;4992050;28;20414;-39